sensor_id;sensor_type;location;lat;lon;timestamp;temperature;humidity
27858;DHT22;16852;51.446;6.528;2023-09-18T00:00:57;22.00;99.90
27858;DHT22;16852;51.446;6.528;2023-09-18T00:02:58;22.00;99.90
27858;DHT22;16852;51.446;6.528;2023-09-18T00:04:59;22.00;99.90
27858;DHT22;16852;51.446;6.528;2023-09-18T00:06:59;22.00;99.90
27858;DHT22;16852;51.446;6.528;2023-09-18T00:09:00;22.00;99.90
27858;DHT22;16852;51.446;6.528;2023-09-18T00:11:01;22.00;99.90
27858;DHT22;16852;51.446;6.528;2023-09-18T00:13:01;22.00;99.90
27858;DHT22;16852;51.446;6.528;2023-09-18T00:15:02;22.00;99.90
27858;DHT22;16852;51.446;6.528;2023-09-18T00:17:03;22.00;99.90
27858;DHT22;16852;51.446;6.528;2023-09-18T00:19:04;21.90;99.90
27858;DHT22;16852;51.446;6.528;2023-09-18T00:21:06;21.90;99.90
27858;DHT22;16852;51.446;6.528;2023-09-18T00:23:08;21.90;99.90
27858;DHT22;16852;51.446;6.528;2023-09-18T00:25:09;21.90;99.90
27858;DHT22;16852;51.446;6.528;2023-09-18T00:27:10;21.90;99.90
27858;DHT22;16852;51.446;6.528;2023-09-18T00:29:11;21.90;99.90
27858;DHT22;16852;51.446;6.528;2023-09-18T00:31:12;21.90;99.90
27858;DHT22;16852;51.446;6.528;2023-09-18T00:33:12;21.90;99.90
27858;DHT22;16852;51.446;6.528;2023-09-18T00:35:13;21.90;99.90
27858;DHT22;16852;51.446;6.528;2023-09-18T00:37:14;21.90;99.90
27858;DHT22;16852;51.446;6.528;2023-09-18T00:39:14;21.90;99.90
27858;DHT22;16852;51.446;6.528;2023-09-18T00:41:15;21.90;99.90
27858;DHT22;16852;51.446;6.528;2023-09-18T00:43:16;21.90;99.90
27858;DHT22;16852;51.446;6.528;2023-09-18T00:45:18;21.90;99.90
27858;DHT22;16852;51.446;6.528;2023-09-18T00:47:19;21.90;99.90
27858;DHT22;16852;51.446;6.528;2023-09-18T00:49:20;21.80;99.90
27858;DHT22;16852;51.446;6.528;2023-09-18T00:51:22;21.80;99.90
27858;DHT22;16852;51.446;6.528;2023-09-18T00:53:24;21.80;99.90
27858;DHT22;16852;51.446;6.528;2023-09-18T00:55:27;21.80;99.90
27858;DHT22;16852;51.446;6.528;2023-09-18T00:57:28;21.80;99.90
27858;DHT22;16852;51.446;6.528;2023-09-18T00:59:29;21.80;99.90
27858;DHT22;16852;51.446;6.528;2023-09-18T01:01:32;21.80;99.90
27858;DHT22;16852;51.446;6.528;2023-09-18T01:03:32;21.80;99.90
27858;DHT22;16852;51.446;6.528;2023-09-18T01:05:33;21.80;99.90
27858;DHT22;16852;51.446;6.528;2023-09-18T01:07:34;21.80;99.90
27858;DHT22;16852;51.446;6.528;2023-09-18T01:09:35;21.80;99.90
27858;DHT22;16852;51.446;6.528;2023-09-18T01:11:43;21.80;99.90
27858;DHT22;16852;51.446;6.528;2023-09-18T01:13:54;21.70;99.90
27858;DHT22;16852;51.446;6.528;2023-09-18T01:16:02;21.70;99.90
27858;DHT22;16852;51.446;6.528;2023-09-18T01:18:04;21.70;99.90
27858;DHT22;16852;51.446;6.528;2023-09-18T01:20:09;21.70;99.90
27858;DHT22;16852;51.446;6.528;2023-09-18T01:22:11;21.70;99.90
27858;DHT22;16852;51.446;6.528;2023-09-18T01:24:12;21.70;99.90
27858;DHT22;16852;51.446;6.528;2023-09-18T01:26:13;21.70;99.90
27858;DHT22;16852;51.446;6.528;2023-09-18T01:28:13;21.70;99.90
27858;DHT22;16852;51.446;6.528;2023-09-18T01:30:14;21.70;99.90
27858;DHT22;16852;51.446;6.528;2023-09-18T01:32:16;21.70;99.90
27858;DHT22;16852;51.446;6.528;2023-09-18T01:34:18;21.70;99.90
27858;DHT22;16852;51.446;6.528;2023-09-18T01:36:19;21.70;99.90
27858;DHT22;16852;51.446;6.528;2023-09-18T01:38:22;21.70;99.90
27858;DHT22;16852;51.446;6.528;2023-09-18T01:40:24;21.70;99.90
27858;DHT22;16852;51.446;6.528;2023-09-18T01:42:26;21.70;99.90
27858;DHT22;16852;51.446;6.528;2023-09-18T01:44:28;21.70;99.90
27858;DHT22;16852;51.446;6.528;2023-09-18T01:46:29;21.70;99.90
27858;DHT22;16852;51.446;6.528;2023-09-18T01:48:29;21.70;99.90
27858;DHT22;16852;51.446;6.528;2023-09-18T01:50:30;21.70;99.90
27858;DHT22;16852;51.446;6.528;2023-09-18T01:52:31;21.70;99.90
27858;DHT22;16852;51.446;6.528;2023-09-18T01:54:32;21.70;99.90
27858;DHT22;16852;51.446;6.528;2023-09-18T01:56:34;21.70;99.90
27858;DHT22;16852;51.446;6.528;2023-09-18T01:58:35;21.70;99.90
27858;DHT22;16852;51.446;6.528;2023-09-18T02:00:35;21.60;99.90
27858;DHT22;16852;51.446;6.528;2023-09-18T02:02:36;21.60;99.90
27858;DHT22;16852;51.446;6.528;2023-09-18T02:04:37;21.60;99.90
27858;DHT22;16852;51.446;6.528;2023-09-18T02:06:38;21.60;99.90
27858;DHT22;16852;51.446;6.528;2023-09-18T02:08:40;21.60;99.90
27858;DHT22;16852;51.446;6.528;2023-09-18T02:10:40;21.60;99.90
27858;DHT22;16852;51.446;6.528;2023-09-18T02:12:41;21.60;99.90
27858;DHT22;16852;51.446;6.528;2023-09-18T02:14:42;21.70;99.90
27858;DHT22;16852;51.446;6.528;2023-09-18T02:16:43;21.70;99.90
27858;DHT22;16852;51.446;6.528;2023-09-18T02:18:44;21.70;99.90
27858;DHT22;16852;51.446;6.528;2023-09-18T02:20:46;21.70;99.90
27858;DHT22;16852;51.446;6.528;2023-09-18T02:22:49;21.70;99.90
27858;DHT22;16852;51.446;6.528;2023-09-18T02:24:49;21.70;99.90
27858;DHT22;16852;51.446;6.528;2023-09-18T02:26:50;21.80;99.90
27858;DHT22;16852;51.446;6.528;2023-09-18T02:28:52;21.80;99.90
27858;DHT22;16852;51.446;6.528;2023-09-18T02:30:54;21.80;99.90
27858;DHT22;16852;51.446;6.528;2023-09-18T02:32:54;21.80;99.90
27858;DHT22;16852;51.446;6.528;2023-09-18T02:34:55;21.80;99.90
27858;DHT22;16852;51.446;6.528;2023-09-18T02:36:56;21.70;99.90
27858;DHT22;16852;51.446;6.528;2023-09-18T02:38:57;21.70;99.90
27858;DHT22;16852;51.446;6.528;2023-09-18T02:40:58;21.70;99.90
27858;DHT22;16852;51.446;6.528;2023-09-18T02:42:58;21.70;99.90
27858;DHT22;16852;51.446;6.528;2023-09-18T02:44:59;21.70;99.90
27858;DHT22;16852;51.446;6.528;2023-09-18T02:47:00;21.70;99.90
27858;DHT22;16852;51.446;6.528;2023-09-18T02:49:01;21.80;99.90
27858;DHT22;16852;51.446;6.528;2023-09-18T02:51:02;21.80;99.90
27858;DHT22;16852;51.446;6.528;2023-09-18T02:53:05;21.80;99.90
27858;DHT22;16852;51.446;6.528;2023-09-18T02:55:06;21.70;99.90
27858;DHT22;16852;51.446;6.528;2023-09-18T02:57:07;21.70;99.90
27858;DHT22;16852;51.446;6.528;2023-09-18T02:59:07;21.60;99.90
27858;DHT22;16852;51.446;6.528;2023-09-18T03:01:09;21.70;99.90
27858;DHT22;16852;51.446;6.528;2023-09-18T03:03:10;21.60;99.90
27858;DHT22;16852;51.446;6.528;2023-09-18T03:05:10;21.60;99.90
27858;DHT22;16852;51.446;6.528;2023-09-18T03:07:14;21.50;99.90
27858;DHT22;16852;51.446;6.528;2023-09-18T03:09:16;21.40;99.90
27858;DHT22;16852;51.446;6.528;2023-09-18T03:11:17;21.40;99.90
27858;DHT22;16852;51.446;6.528;2023-09-18T03:13:17;21.40;99.90
27858;DHT22;16852;51.446;6.528;2023-09-18T03:15:18;21.40;99.90
27858;DHT22;16852;51.446;6.528;2023-09-18T03:17:19;21.40;99.90
27858;DHT22;16852;51.446;6.528;2023-09-18T03:19:20;21.40;99.90
27858;DHT22;16852;51.446;6.528;2023-09-18T03:21:22;21.30;99.90
27858;DHT22;16852;51.446;6.528;2023-09-18T03:23:23;21.30;99.90
27858;DHT22;16852;51.446;6.528;2023-09-18T03:25:24;21.30;99.90
27858;DHT22;16852;51.446;6.528;2023-09-18T03:27:25;21.30;99.90
27858;DHT22;16852;51.446;6.528;2023-09-18T03:29:29;21.30;99.90
27858;DHT22;16852;51.446;6.528;2023-09-18T03:31:30;21.30;99.90
27858;DHT22;16852;51.446;6.528;2023-09-18T03:33:31;21.30;99.90
27858;DHT22;16852;51.446;6.528;2023-09-18T03:35:31;21.30;99.90
27858;DHT22;16852;51.446;6.528;2023-09-18T03:37:32;21.30;99.90
27858;DHT22;16852;51.446;6.528;2023-09-18T03:39:33;21.30;99.90
27858;DHT22;16852;51.446;6.528;2023-09-18T03:41:34;21.30;99.90
27858;DHT22;16852;51.446;6.528;2023-09-18T03:43:34;21.30;99.90
27858;DHT22;16852;51.446;6.528;2023-09-18T03:45:35;21.30;99.90
27858;DHT22;16852;51.446;6.528;2023-09-18T03:47:37;21.30;99.90
27858;DHT22;16852;51.446;6.528;2023-09-18T03:49:37;21.30;99.90
27858;DHT22;16852;51.446;6.528;2023-09-18T03:51:38;21.30;99.90
27858;DHT22;16852;51.446;6.528;2023-09-18T03:53:38;21.30;99.90
27858;DHT22;16852;51.446;6.528;2023-09-18T03:55:39;21.30;99.90
27858;DHT22;16852;51.446;6.528;2023-09-18T03:57:41;21.30;99.90
27858;DHT22;16852;51.446;6.528;2023-09-18T03:59:42;21.30;99.90
27858;DHT22;16852;51.446;6.528;2023-09-18T04:01:42;21.30;99.90
27858;DHT22;16852;51.446;6.528;2023-09-18T04:03:43;21.30;99.90
27858;DHT22;16852;51.446;6.528;2023-09-18T04:05:44;21.30;99.90
27858;DHT22;16852;51.446;6.528;2023-09-18T04:07:45;21.30;99.90
27858;DHT22;16852;51.446;6.528;2023-09-18T04:09:46;21.30;99.90
27858;DHT22;16852;51.446;6.528;2023-09-18T04:11:47;21.40;99.90
27858;DHT22;16852;51.446;6.528;2023-09-18T04:13:47;21.40;99.90
27858;DHT22;16852;51.446;6.528;2023-09-18T04:15:48;21.40;99.90
27858;DHT22;16852;51.446;6.528;2023-09-18T04:17:49;21.40;99.90
27858;DHT22;16852;51.446;6.528;2023-09-18T04:19:49;21.50;99.90
27858;DHT22;16852;51.446;6.528;2023-09-18T04:21:50;21.50;99.90
27858;DHT22;16852;51.446;6.528;2023-09-18T04:23:50;21.40;99.90
27858;DHT22;16852;51.446;6.528;2023-09-18T04:25:56;21.40;99.90
27858;DHT22;16852;51.446;6.528;2023-09-18T04:27:58;21.30;99.90
27858;DHT22;16852;51.446;6.528;2023-09-18T04:29:59;21.30;99.90
27858;DHT22;16852;51.446;6.528;2023-09-18T04:32:01;21.20;99.90
27858;DHT22;16852;51.446;6.528;2023-09-18T04:34:01;21.20;99.90
27858;DHT22;16852;51.446;6.528;2023-09-18T04:36:03;21.20;99.90
27858;DHT22;16852;51.446;6.528;2023-09-18T04:38:05;21.10;99.90
27858;DHT22;16852;51.446;6.528;2023-09-18T04:40:07;21.10;99.90
27858;DHT22;16852;51.446;6.528;2023-09-18T04:42:10;21.10;99.90
27858;DHT22;16852;51.446;6.528;2023-09-18T04:44:10;21.10;99.90
27858;DHT22;16852;51.446;6.528;2023-09-18T04:46:13;21.10;99.90
27858;DHT22;16852;51.446;6.528;2023-09-18T04:48:13;21.10;99.90
27858;DHT22;16852;51.446;6.528;2023-09-18T04:50:14;21.10;99.90
27858;DHT22;16852;51.446;6.528;2023-09-18T04:52:15;21.10;99.90
27858;DHT22;16852;51.446;6.528;2023-09-18T04:54:15;21.10;99.90
27858;DHT22;16852;51.446;6.528;2023-09-18T04:56:16;21.10;99.90
27858;DHT22;16852;51.446;6.528;2023-09-18T04:58:17;21.10;99.90
27858;DHT22;16852;51.446;6.528;2023-09-18T05:00:18;21.10;99.90
27858;DHT22;16852;51.446;6.528;2023-09-18T05:02:19;21.10;99.90
27858;DHT22;16852;51.446;6.528;2023-09-18T05:04:20;21.10;99.90
27858;DHT22;16852;51.446;6.528;2023-09-18T05:06:20;21.10;99.90
27858;DHT22;16852;51.446;6.528;2023-09-18T05:08:21;21.10;99.90
27858;DHT22;16852;51.446;6.528;2023-09-18T05:10:22;21.10;99.90
27858;DHT22;16852;51.446;6.528;2023-09-18T05:12:23;21.10;99.90
27858;DHT22;16852;51.446;6.528;2023-09-18T05:14:24;21.10;99.90
27858;DHT22;16852;51.446;6.528;2023-09-18T05:16:24;21.10;99.90
27858;DHT22;16852;51.446;6.528;2023-09-18T05:18:25;21.10;99.90
27858;DHT22;16852;51.446;6.528;2023-09-18T05:20:26;21.10;99.90
27858;DHT22;16852;51.446;6.528;2023-09-18T05:22:28;21.10;99.90
27858;DHT22;16852;51.446;6.528;2023-09-18T05:24:29;21.10;99.90
27858;DHT22;16852;51.446;6.528;2023-09-18T05:26:30;21.00;99.90
27858;DHT22;16852;51.446;6.528;2023-09-18T05:28:31;21.00;99.90
27858;DHT22;16852;51.446;6.528;2023-09-18T05:30:33;21.00;99.90
27858;DHT22;16852;51.446;6.528;2023-09-18T05:32:42;21.00;99.90
27858;DHT22;16852;51.446;6.528;2023-09-18T05:34:43;21.00;99.90
27858;DHT22;16852;51.446;6.528;2023-09-18T05:36:44;21.00;99.90
27858;DHT22;16852;51.446;6.528;2023-09-18T05:38:44;21.00;99.90
27858;DHT22;16852;51.446;6.528;2023-09-18T05:40:45;21.00;99.90
27858;DHT22;16852;51.446;6.528;2023-09-18T05:42:47;21.00;99.90
27858;DHT22;16852;51.446;6.528;2023-09-18T05:44:47;20.90;99.90
27858;DHT22;16852;51.446;6.528;2023-09-18T05:46:48;21.00;99.90
27858;DHT22;16852;51.446;6.528;2023-09-18T05:48:49;21.00;99.90
27858;DHT22;16852;51.446;6.528;2023-09-18T05:50:49;20.90;99.90
27858;DHT22;16852;51.446;6.528;2023-09-18T05:52:50;20.90;99.90
27858;DHT22;16852;51.446;6.528;2023-09-18T05:54:52;20.90;99.90
27858;DHT22;16852;51.446;6.528;2023-09-18T05:56:52;20.80;99.90
27858;DHT22;16852;51.446;6.528;2023-09-18T05:58:53;20.80;99.90
27858;DHT22;16852;51.446;6.528;2023-09-18T06:00:55;20.90;99.90
27858;DHT22;16852;51.446;6.528;2023-09-18T06:02:56;20.80;99.90
27858;DHT22;16852;51.446;6.528;2023-09-18T06:04:58;20.80;99.90
27858;DHT22;16852;51.446;6.528;2023-09-18T06:07:00;20.80;99.90
27858;DHT22;16852;51.446;6.528;2023-09-18T06:09:01;20.70;99.90
27858;DHT22;16852;51.446;6.528;2023-09-18T06:11:02;20.70;99.90
27858;DHT22;16852;51.446;6.528;2023-09-18T06:13:03;20.70;99.90
27858;DHT22;16852;51.446;6.528;2023-09-18T06:15:07;20.70;99.90
27858;DHT22;16852;51.446;6.528;2023-09-18T06:17:11;20.70;99.90
27858;DHT22;16852;51.446;6.528;2023-09-18T06:19:12;20.70;99.90
27858;DHT22;16852;51.446;6.528;2023-09-18T06:21:13;20.70;99.90
27858;DHT22;16852;51.446;6.528;2023-09-18T06:23:14;20.60;99.90
27858;DHT22;16852;51.446;6.528;2023-09-18T06:25:15;20.70;99.90
27858;DHT22;16852;51.446;6.528;2023-09-18T06:27:15;20.70;99.90
27858;DHT22;16852;51.446;6.528;2023-09-18T06:29:16;20.70;99.90
27858;DHT22;16852;51.446;6.528;2023-09-18T06:31:17;20.70;99.90
27858;DHT22;16852;51.446;6.528;2023-09-18T06:33:17;20.70;99.90
27858;DHT22;16852;51.446;6.528;2023-09-18T06:35:18;20.70;99.90
27858;DHT22;16852;51.446;6.528;2023-09-18T06:37:19;20.70;99.90
27858;DHT22;16852;51.446;6.528;2023-09-18T06:39:20;20.70;99.90
27858;DHT22;16852;51.446;6.528;2023-09-18T06:41:22;20.70;99.90
27858;DHT22;16852;51.446;6.528;2023-09-18T06:43:23;20.70;99.90
27858;DHT22;16852;51.446;6.528;2023-09-18T06:45:23;20.70;99.90
27858;DHT22;16852;51.446;6.528;2023-09-18T06:47:24;20.70;99.90
27858;DHT22;16852;51.446;6.528;2023-09-18T06:49:25;20.70;99.90
27858;DHT22;16852;51.446;6.528;2023-09-18T06:51:29;20.70;99.90
27858;DHT22;16852;51.446;6.528;2023-09-18T06:53:29;20.70;99.90
27858;DHT22;16852;51.446;6.528;2023-09-18T06:55:30;20.70;99.90
27858;DHT22;16852;51.446;6.528;2023-09-18T06:57:31;20.70;99.90
27858;DHT22;16852;51.446;6.528;2023-09-18T06:59:31;20.70;99.90
27858;DHT22;16852;51.446;6.528;2023-09-18T07:01:33;20.80;99.90
27858;DHT22;16852;51.446;6.528;2023-09-18T07:03:34;20.70;99.90
27858;DHT22;16852;51.446;6.528;2023-09-18T07:05:36;20.80;99.90
27858;DHT22;16852;51.446;6.528;2023-09-18T07:07:37;20.80;99.90
27858;DHT22;16852;51.446;6.528;2023-09-18T07:09:38;20.80;99.90
27858;DHT22;16852;51.446;6.528;2023-09-18T07:11:39;20.90;99.90
27858;DHT22;16852;51.446;6.528;2023-09-18T07:13:39;20.90;99.90
27858;DHT22;16852;51.446;6.528;2023-09-18T07:15:40;20.90;99.90
27858;DHT22;16852;51.446;6.528;2023-09-18T07:17:41;20.90;99.90
27858;DHT22;16852;51.446;6.528;2023-09-18T07:19:43;20.90;99.90
27858;DHT22;16852;51.446;6.528;2023-09-18T07:21:43;20.90;99.90
27858;DHT22;16852;51.446;6.528;2023-09-18T07:23:46;20.90;99.90
27858;DHT22;16852;51.446;6.528;2023-09-18T07:25:48;20.90;99.90
27858;DHT22;16852;51.446;6.528;2023-09-18T07:27:48;20.90;99.90
27858;DHT22;16852;51.446;6.528;2023-09-18T07:29:49;20.90;99.90
27858;DHT22;16852;51.446;6.528;2023-09-18T07:31:50;20.90;99.90
27858;DHT22;16852;51.446;6.528;2023-09-18T07:33:51;21.00;99.90
27858;DHT22;16852;51.446;6.528;2023-09-18T07:35:53;21.00;99.90
27858;DHT22;16852;51.446;6.528;2023-09-18T07:37:53;21.00;99.90
27858;DHT22;16852;51.446;6.528;2023-09-18T07:39:54;21.00;99.90
27858;DHT22;16852;51.446;6.528;2023-09-18T07:41:55;21.00;99.90
27858;DHT22;16852;51.446;6.528;2023-09-18T07:43:56;21.00;99.90
27858;DHT22;16852;51.446;6.528;2023-09-18T07:45:58;21.00;99.90
27858;DHT22;16852;51.446;6.528;2023-09-18T07:48:00;21.00;99.90
27858;DHT22;16852;51.446;6.528;2023-09-18T07:50:00;21.00;99.90
27858;DHT22;16852;51.446;6.528;2023-09-18T07:52:01;21.00;99.90
27858;DHT22;16852;51.446;6.528;2023-09-18T07:54:02;21.00;99.90
27858;DHT22;16852;51.446;6.528;2023-09-18T07:56:03;21.00;99.90
27858;DHT22;16852;51.446;6.528;2023-09-18T07:58:05;21.00;99.90
27858;DHT22;16852;51.446;6.528;2023-09-18T08:00:06;21.00;99.90
27858;DHT22;16852;51.446;6.528;2023-09-18T08:02:12;21.00;99.90
27858;DHT22;16852;51.446;6.528;2023-09-18T08:04:13;21.00;99.90
27858;DHT22;16852;51.446;6.528;2023-09-18T08:06:13;21.10;99.90
27858;DHT22;16852;51.446;6.528;2023-09-18T08:08:16;21.10;99.90
27858;DHT22;16852;51.446;6.528;2023-09-18T08:10:16;21.10;99.90
27858;DHT22;16852;51.446;6.528;2023-09-18T08:12:18;21.10;99.90
27858;DHT22;16852;51.446;6.528;2023-09-18T08:14:18;21.10;99.90
27858;DHT22;16852;51.446;6.528;2023-09-18T08:16:19;21.10;99.90
27858;DHT22;16852;51.446;6.528;2023-09-18T08:18:20;21.10;99.90
27858;DHT22;16852;51.446;6.528;2023-09-18T08:20:21;21.20;99.90
27858;DHT22;16852;51.446;6.528;2023-09-18T08:22:21;21.20;99.90
27858;DHT22;16852;51.446;6.528;2023-09-18T08:24:22;21.20;99.90
27858;DHT22;16852;51.446;6.528;2023-09-18T08:26:23;21.20;99.90
27858;DHT22;16852;51.446;6.528;2023-09-18T08:28:25;21.20;99.90
27858;DHT22;16852;51.446;6.528;2023-09-18T08:30:26;21.30;99.90
27858;DHT22;16852;51.446;6.528;2023-09-18T08:32:26;21.30;99.90
27858;DHT22;16852;51.446;6.528;2023-09-18T08:34:30;21.40;99.90
27858;DHT22;16852;51.446;6.528;2023-09-18T08:36:31;21.30;99.90
27858;DHT22;16852;51.446;6.528;2023-09-18T08:38:32;21.40;99.90
27858;DHT22;16852;51.446;6.528;2023-09-18T08:40:35;21.40;99.90
27858;DHT22;16852;51.446;6.528;2023-09-18T08:42:39;21.40;99.90
27858;DHT22;16852;51.446;6.528;2023-09-18T08:44:41;21.40;99.90
27858;DHT22;16852;51.446;6.528;2023-09-18T08:46:43;21.40;99.90
27858;DHT22;16852;51.446;6.528;2023-09-18T08:48:44;21.40;99.90
27858;DHT22;16852;51.446;6.528;2023-09-18T08:50:46;21.50;99.90
27858;DHT22;16852;51.446;6.528;2023-09-18T08:52:47;21.40;99.90
27858;DHT22;16852;51.446;6.528;2023-09-18T08:54:50;21.50;99.90
27858;DHT22;16852;51.446;6.528;2023-09-18T08:56:52;21.50;99.90
27858;DHT22;16852;51.446;6.528;2023-09-18T08:58:53;21.50;99.90
27858;DHT22;16852;51.446;6.528;2023-09-18T09:00:54;21.40;99.90
27858;DHT22;16852;51.446;6.528;2023-09-18T09:02:55;21.50;99.90
27858;DHT22;16852;51.446;6.528;2023-09-18T09:04:55;21.50;99.90
27858;DHT22;16852;51.446;6.528;2023-09-18T09:06:56;21.40;99.90
27858;DHT22;16852;51.446;6.528;2023-09-18T09:08:59;21.50;99.90
27858;DHT22;16852;51.446;6.528;2023-09-18T09:11:00;21.40;99.90
27858;DHT22;16852;51.446;6.528;2023-09-18T09:13:01;21.50;99.90
27858;DHT22;16852;51.446;6.528;2023-09-18T09:15:03;21.50;99.90
27858;DHT22;16852;51.446;6.528;2023-09-18T09:17:07;21.50;99.90
27858;DHT22;16852;51.446;6.528;2023-09-18T09:19:07;21.50;99.90
27858;DHT22;16852;51.446;6.528;2023-09-18T09:21:08;21.60;99.90
27858;DHT22;16852;51.446;6.528;2023-09-18T09:23:09;21.60;99.90
27858;DHT22;16852;51.446;6.528;2023-09-18T09:27:20;21.60;99.90
27858;DHT22;16852;51.446;6.528;2023-09-18T09:29:21;21.60;99.90
27858;DHT22;16852;51.446;6.528;2023-09-18T09:31:26;21.60;99.90
27858;DHT22;16852;51.446;6.528;2023-09-18T09:33:29;21.60;99.90
27858;DHT22;16852;51.446;6.528;2023-09-18T09:35:35;21.60;99.90
27858;DHT22;16852;51.446;6.528;2023-09-18T09:37:36;21.70;99.90
27858;DHT22;16852;51.446;6.528;2023-09-18T09:39:54;21.70;99.90
27858;DHT22;16852;51.446;6.528;2023-09-18T09:42:21;21.70;99.90
27858;DHT22;16852;51.446;6.528;2023-09-18T09:44:25;21.70;99.90
27858;DHT22;16852;51.446;6.528;2023-09-18T09:46:26;21.70;99.90
27858;DHT22;16852;51.446;6.528;2023-09-18T09:48:28;21.80;99.90
27858;DHT22;16852;51.446;6.528;2023-09-18T09:50:32;21.80;99.90
27858;DHT22;16852;51.446;6.528;2023-09-18T09:52:33;21.90;99.90
27858;DHT22;16852;51.446;6.528;2023-09-18T09:54:34;21.90;99.90
27858;DHT22;16852;51.446;6.528;2023-09-18T09:56:44;21.90;99.90
27858;DHT22;16852;51.446;6.528;2023-09-18T09:59:02;22.00;99.90
27858;DHT22;16852;51.446;6.528;2023-09-18T10:01:06;22.00;99.90
27858;DHT22;16852;51.446;6.528;2023-09-18T10:03:18;22.00;99.90
27858;DHT22;16852;51.446;6.528;2023-09-18T10:05:19;22.10;99.90
27858;DHT22;16852;51.446;6.528;2023-09-18T10:07:20;22.10;99.90
27858;DHT22;16852;51.446;6.528;2023-09-18T10:09:22;22.20;99.90
27858;DHT22;16852;51.446;6.528;2023-09-18T10:11:26;22.30;99.90
27858;DHT22;16852;51.446;6.528;2023-09-18T10:13:41;22.40;99.90
27858;DHT22;16852;51.446;6.528;2023-09-18T10:15:44;22.50;99.90
27858;DHT22;16852;51.446;6.528;2023-09-18T10:17:48;22.60;99.90
27858;DHT22;16852;51.446;6.528;2023-09-18T10:20:01;22.70;99.90
27858;DHT22;16852;51.446;6.528;2023-09-18T10:24:28;22.80;99.90
27858;DHT22;16852;51.446;6.528;2023-09-18T10:26:35;22.90;99.90
27858;DHT22;16852;51.446;6.528;2023-09-18T10:28:39;23.00;99.90
27858;DHT22;16852;51.446;6.528;2023-09-18T10:30:41;23.10;99.90
27858;DHT22;16852;51.446;6.528;2023-09-18T10:32:44;23.20;99.90
27858;DHT22;16852;51.446;6.528;2023-09-18T10:34:47;23.10;99.90
27858;DHT22;16852;51.446;6.528;2023-09-18T10:36:52;23.30;99.90
27858;DHT22;16852;51.446;6.528;2023-09-18T10:38:55;23.30;99.90
27858;DHT22;16852;51.446;6.528;2023-09-18T10:40:57;23.40;99.90
27858;DHT22;16852;51.446;6.528;2023-09-18T10:42:59;23.50;99.90
27858;DHT22;16852;51.446;6.528;2023-09-18T10:45:04;23.50;99.90
27858;DHT22;16852;51.446;6.528;2023-09-18T10:47:10;23.50;99.90
27858;DHT22;16852;51.446;6.528;2023-09-18T10:49:11;23.50;99.90
27858;DHT22;16852;51.446;6.528;2023-09-18T10:51:12;23.60;99.90
27858;DHT22;16852;51.446;6.528;2023-09-18T10:53:14;23.60;99.90
27858;DHT22;16852;51.446;6.528;2023-09-18T10:55:17;23.60;99.90
27858;DHT22;16852;51.446;6.528;2023-09-18T10:57:18;23.70;99.90
27858;DHT22;16852;51.446;6.528;2023-09-18T10:59:20;23.80;99.90
27858;DHT22;16852;51.446;6.528;2023-09-18T11:01:23;23.80;99.90
27858;DHT22;16852;51.446;6.528;2023-09-18T11:03:24;23.90;99.90
27858;DHT22;16852;51.446;6.528;2023-09-18T11:05:32;23.90;99.90
27858;DHT22;16852;51.446;6.528;2023-09-18T11:07:33;23.90;99.90
27858;DHT22;16852;51.446;6.528;2023-09-18T11:09:42;24.00;99.90
27858;DHT22;16852;51.446;6.528;2023-09-18T11:11:44;24.10;99.90
27858;DHT22;16852;51.446;6.528;2023-09-18T11:13:47;24.10;99.90
27858;DHT22;16852;51.446;6.528;2023-09-18T11:15:48;24.10;99.90
27858;DHT22;16852;51.446;6.528;2023-09-18T11:17:58;24.20;99.90
27858;DHT22;16852;51.446;6.528;2023-09-18T11:20:06;24.30;99.90
27858;DHT22;16852;51.446;6.528;2023-09-18T11:22:12;24.40;99.90
27858;DHT22;16852;51.446;6.528;2023-09-18T11:24:18;24.50;99.90
27858;DHT22;16852;51.446;6.528;2023-09-18T11:26:20;24.40;99.90
27858;DHT22;16852;51.446;6.528;2023-09-18T11:28:25;24.50;99.90
27858;DHT22;16852;51.446;6.528;2023-09-18T11:30:26;24.50;99.90
27858;DHT22;16852;51.446;6.528;2023-09-18T11:32:39;24.50;99.90
27858;DHT22;16852;51.446;6.528;2023-09-18T11:34:42;24.50;99.90
27858;DHT22;16852;51.446;6.528;2023-09-18T11:36:43;24.50;99.90
27858;DHT22;16852;51.446;6.528;2023-09-18T11:38:57;24.50;99.90
27858;DHT22;16852;51.446;6.528;2023-09-18T11:40:58;24.50;99.90
27858;DHT22;16852;51.446;6.528;2023-09-18T11:43:25;24.60;99.90
27858;DHT22;16852;51.446;6.528;2023-09-18T11:45:26;24.60;99.90
27858;DHT22;16852;51.446;6.528;2023-09-18T11:47:27;24.70;99.90
27858;DHT22;16852;51.446;6.528;2023-09-18T11:49:29;24.60;99.90
27858;DHT22;16852;51.446;6.528;2023-09-18T11:51:32;24.70;99.90
27858;DHT22;16852;51.446;6.528;2023-09-18T11:53:35;24.70;99.90
27858;DHT22;16852;51.446;6.528;2023-09-18T11:55:39;24.70;99.90
27858;DHT22;16852;51.446;6.528;2023-09-18T11:57:40;24.70;99.90
27858;DHT22;16852;51.446;6.528;2023-09-18T11:59:43;24.70;99.90
27858;DHT22;16852;51.446;6.528;2023-09-18T12:01:53;24.70;99.90
27858;DHT22;16852;51.446;6.528;2023-09-18T12:04:04;24.60;99.90
27858;DHT22;16852;51.446;6.528;2023-09-18T12:06:08;24.70;99.90
27858;DHT22;16852;51.446;6.528;2023-09-18T12:08:13;24.70;99.90
27858;DHT22;16852;51.446;6.528;2023-09-18T12:10:20;24.70;99.90
27858;DHT22;16852;51.446;6.528;2023-09-18T12:12:21;24.70;99.90
27858;DHT22;16852;51.446;6.528;2023-09-18T12:14:22;24.70;99.90
27858;DHT22;16852;51.446;6.528;2023-09-18T12:16:23;24.70;99.90
27858;DHT22;16852;51.446;6.528;2023-09-18T12:18:24;24.70;99.90
27858;DHT22;16852;51.446;6.528;2023-09-18T12:20:25;24.70;99.90
27858;DHT22;16852;51.446;6.528;2023-09-18T12:22:29;24.80;99.90
27858;DHT22;16852;51.446;6.528;2023-09-18T12:24:31;24.80;99.90
27858;DHT22;16852;51.446;6.528;2023-09-18T12:26:32;24.90;99.90
27858;DHT22;16852;51.446;6.528;2023-09-18T12:28:36;24.90;99.90
27858;DHT22;16852;51.446;6.528;2023-09-18T12:30:37;24.80;99.90
27858;DHT22;16852;51.446;6.528;2023-09-18T12:32:39;24.90;99.90
27858;DHT22;16852;51.446;6.528;2023-09-18T12:34:43;24.80;99.90
27858;DHT22;16852;51.446;6.528;2023-09-18T12:36:44;24.70;99.90
27858;DHT22;16852;51.446;6.528;2023-09-18T12:38:57;24.70;99.90
27858;DHT22;16852;51.446;6.528;2023-09-18T12:40:59;24.60;99.90
27858;DHT22;16852;51.446;6.528;2023-09-18T12:43:06;24.60;99.90
27858;DHT22;16852;51.446;6.528;2023-09-18T12:45:08;24.60;99.90
27858;DHT22;16852;51.446;6.528;2023-09-18T12:47:09;24.60;99.90
27858;DHT22;16852;51.446;6.528;2023-09-18T12:49:17;24.60;99.90
27858;DHT22;16852;51.446;6.528;2023-09-18T12:51:17;24.70;99.90
27858;DHT22;16852;51.446;6.528;2023-09-18T12:53:23;24.70;99.90
27858;DHT22;16852;51.446;6.528;2023-09-18T12:55:25;24.70;99.90